KHDE/HDE METAR and TAF weather

Enter ICAO airport designator
Station Type Date Time Source
KHDE METAR 2019/08/25 02:35 UTC NOAA

KHDE 250235Z AUTO 13010G16KT 10SM -TSRA SCT009 OVC013 20/20 A2997 RMK AO2 LTG DSNT ALQS P0010 T02020201


Station Type Date Time Source
KHDE Decoded METAR 2019/08/25 02:35 UTC NOAA

Station name not available
Aug 24, 2019 - 10:35 PM EDT / 2019.08.25 0235 UTC
Wind: from the SE (130 degrees) at 12 MPH (10 KT) gusting to 18 MPH (16 KT):0
Visibility: 10 mile(s):0
Sky conditions: overcast
Weather: light rain with thunder; Lightning observed
Precipitation last hour: 0.10 inches
Temperature: 68.4 F (20.2 C)
Dew Point: 68.2 F (20.1 C)
Relative Humidity: 99%
Pressure (altimeter): 29.97 in. Hg (1014 hPa)
ob: KHDE 250235Z AUTO 13010G16KT 10SM -TSRA SCT009 OVC013 20/20 A2997 RMK AO2 LTG DSNT ALQS P0010 T02020201
cycle: 2

Station Type Date Time Source
KHDE TAF UTC NOAA

Error!

Example: see airport list